sensor_id;sensor_type;location;lat;lon;timestamp;pressure;altitude;pressure_sealevel;temperature;humidity
71956;BME280;59829;50.562;6.258;2022-07-10T00:09:02;96744.13;;;16.99;53.58
71956;BME280;59829;50.562;6.258;2022-07-10T00:19:02;96741.28;;;16.93;53.63
71956;BME280;59829;50.562;6.258;2022-07-10T00:29:03;96744.28;;;17.07;53.17
71956;BME280;59829;50.562;6.258;2022-07-10T00:39:03;96730.09;;;17.11;52.93
71956;BME280;59829;50.562;6.258;2022-07-10T00:49:04;96728.78;;;16.88;53.55
71956;BME280;59829;50.562;6.258;2022-07-10T00:59:05;96724.41;;;16.88;53.57
71956;BME280;59829;50.562;6.258;2022-07-10T01:09:05;96708.31;;;16.66;54.30
71956;BME280;59829;50.562;6.258;2022-07-10T01:19:06;96702.09;;;16.58;54.62
71956;BME280;59829;50.562;6.258;2022-07-10T01:29:07;96691.44;;;16.62;54.59
71956;BME280;59829;50.562;6.258;2022-07-10T01:39:08;96687.13;;;16.52;54.73
71956;BME280;59829;50.562;6.258;2022-07-10T01:49:08;96695.38;;;16.66;54.54
71956;BME280;59829;50.562;6.258;2022-07-10T01:59:09;96695.84;;;16.51;54.78
71956;BME280;59829;50.562;6.258;2022-07-10T02:09:09;96677.31;;;16.46;54.83
71956;BME280;59829;50.562;6.258;2022-07-10T02:19:10;96667.66;;;16.29;54.30
71956;BME280;59829;50.562;6.258;2022-07-10T02:29:10;96673.22;;;16.44;54.29
71956;BME280;59829;50.562;6.258;2022-07-10T02:39:11;96667.78;;;16.47;54.86
71956;BME280;59829;50.562;6.258;2022-07-10T02:49:11;96670.38;;;16.56;54.61
71956;BME280;59829;50.562;6.258;2022-07-10T02:59:12;96663.41;;;16.57;54.98
71956;BME280;59829;50.562;6.258;2022-07-10T03:09:12;96673.25;;;16.34;55.65
71956;BME280;59829;50.562;6.258;2022-07-10T03:19:13;96682.09;;;16.51;55.57
71956;BME280;59829;50.562;6.258;2022-07-10T03:29:13;96678.41;;;16.53;55.42
71956;BME280;59829;50.562;6.258;2022-07-10T03:39:13;96672.44;;;16.34;56.30
71956;BME280;59829;50.562;6.258;2022-07-10T03:49:14;96676.50;;;16.55;55.60
71956;BME280;59829;50.562;6.258;2022-07-10T03:59:14;96670.09;;;16.40;56.07
71956;BME280;59829;50.562;6.258;2022-07-10T04:09:15;96674.47;;;16.40;56.65
71956;BME280;59829;50.562;6.258;2022-07-10T04:19:15;96664.13;;;16.20;56.77
71956;BME280;59829;50.562;6.258;2022-07-10T04:29:16;96655.00;;;16.26;56.63
71956;BME280;59829;50.562;6.258;2022-07-10T04:39:16;96640.72;;;16.41;56.47
71956;BME280;59829;50.562;6.258;2022-07-10T04:49:17;96654.47;;;16.32;56.76
71956;BME280;59829;50.562;6.258;2022-07-10T04:59:17;96664.38;;;16.56;56.08
71956;BME280;59829;50.562;6.258;2022-07-10T05:09:18;96665.88;;;16.58;55.87
71956;BME280;59829;50.562;6.258;2022-07-10T05:19:21;96675.81;;;16.53;55.88
71956;BME280;59829;50.562;6.258;2022-07-10T05:29:22;96684.69;;;16.51;56.43
71956;BME280;59829;50.562;6.258;2022-07-10T05:39:22;96691.16;;;16.65;56.91
71956;BME280;59829;50.562;6.258;2022-07-10T05:49:26;96691.44;;;16.62;56.98
71956;BME280;59829;50.562;6.258;2022-07-10T05:59:26;96691.44;;;16.62;57.48
71956;BME280;59829;50.562;6.258;2022-07-10T06:09:27;96689.16;;;16.78;57.66
71956;BME280;59829;50.562;6.258;2022-07-10T06:19:27;96697.19;;;16.75;57.13
71956;BME280;59829;50.562;6.258;2022-07-10T06:29:28;96703.03;;;16.86;56.46
71956;BME280;59829;50.562;6.258;2022-07-10T06:39:32;96702.84;;;16.98;56.94
71956;BME280;59829;50.562;6.258;2022-07-10T06:49:36;96696.09;;;16.87;56.72
71956;BME280;59829;50.562;6.258;2022-07-10T06:59:37;96705.59;;;16.96;57.06
71956;BME280;59829;50.562;6.258;2022-07-10T07:09:38;96713.78;;;17.01;56.06
71956;BME280;59829;50.562;6.258;2022-07-10T07:19:38;96716.75;;;17.06;55.60
71956;BME280;59829;50.562;6.258;2022-07-10T07:29:57;96719.88;;;17.00;55.66
71956;BME280;59829;50.562;6.258;2022-07-10T07:40:01;96724.09;;;17.11;55.89
71956;BME280;59829;50.562;6.258;2022-07-10T07:50:02;96716.19;;;17.12;55.84
71956;BME280;59829;50.562;6.258;2022-07-10T08:00:05;96704.81;;;17.33;55.61
71956;BME280;59829;50.562;6.258;2022-07-10T08:10:09;96701.94;;;17.36;56.06
71956;BME280;59829;50.562;6.258;2022-07-10T08:20:12;96707.13;;;17.36;54.22
71956;BME280;59829;50.562;6.258;2022-07-10T08:30:13;96704.72;;;17.25;54.63
71956;BME280;59829;50.562;6.258;2022-07-10T08:40:15;96707.06;;;17.45;53.90
71956;BME280;59829;50.562;6.258;2022-07-10T08:50:23;96705.88;;;17.67;53.36
71956;BME280;59829;50.562;6.258;2022-07-10T09:00:24;96702.84;;;17.44;53.97
71956;BME280;59829;50.562;6.258;2022-07-10T09:10:26;96696.09;;;17.71;53.62
71956;BME280;59829;50.562;6.258;2022-07-10T09:20:37;96681.97;;;18.01;54.44
71956;BME280;59829;50.562;6.258;2022-07-10T09:30:39;96681.94;;;18.11;54.49
71956;BME280;59829;50.562;6.258;2022-07-10T09:40:39;96679.69;;;18.16;53.50
71956;BME280;59829;50.562;6.258;2022-07-10T09:50:40;96673.25;;;18.37;53.57
71956;BME280;59829;50.562;6.258;2022-07-10T10:00:41;96689.56;;;18.48;53.65
71956;BME280;59829;50.562;6.258;2022-07-10T10:10:47;96686.31;;;18.63;53.55
71956;BME280;59829;50.562;6.258;2022-07-10T10:20:49;96685.09;;;18.58;54.19
71956;BME280;59829;50.562;6.258;2022-07-10T10:30:57;96683.69;;;18.81;54.03
71956;BME280;59829;50.562;6.258;2022-07-10T10:41:22;96675.88;;;18.81;52.95
71956;BME280;59829;50.562;6.258;2022-07-10T10:51:22;96682.22;;;18.61;53.58
71956;BME280;59829;50.562;6.258;2022-07-10T11:01:26;96686.94;;;18.83;55.00
71956;BME280;59829;50.562;6.258;2022-07-10T11:21:46;96675.44;;;19.12;53.47
71956;BME280;59829;50.562;6.258;2022-07-10T11:31:54;96658.56;;;19.16;53.31
71956;BME280;59829;50.562;6.258;2022-07-10T11:41:55;96661.41;;;19.05;54.28
71956;BME280;59829;50.562;6.258;2022-07-10T11:52:01;96657.34;;;19.28;53.09
71956;BME280;59829;50.562;6.258;2022-07-10T12:02:04;96646.88;;;19.12;52.67
71956;BME280;59829;50.562;6.258;2022-07-10T12:12:06;96652.66;;;19.40;52.49
71956;BME280;59829;50.562;6.258;2022-07-10T12:22:08;96648.25;;;19.32;52.83
71956;BME280;59829;50.562;6.258;2022-07-10T12:32:09;96660.94;;;19.35;53.21
71956;BME280;59829;50.562;6.258;2022-07-10T12:42:11;96663.91;;;19.48;53.46
71956;BME280;59829;50.562;6.258;2022-07-10T12:52:26;96660.44;;;19.66;52.01
71956;BME280;59829;50.562;6.258;2022-07-10T13:02:29;96656.22;;;19.73;53.15
71956;BME280;59829;50.562;6.258;2022-07-10T13:12:31;96651.66;;;19.67;52.87
71956;BME280;59829;50.562;6.258;2022-07-10T13:22:31;96659.25;;;19.60;53.06
71956;BME280;59829;50.562;6.258;2022-07-10T13:32:32;96669.72;;;19.42;53.31
71956;BME280;59829;50.562;6.258;2022-07-10T13:42:33;96658.56;;;19.50;54.09
71956;BME280;59829;50.562;6.258;2022-07-10T13:52:34;96665.84;;;19.46;54.03
71956;BME280;59829;50.562;6.258;2022-07-10T14:02:34;96667.50;;;19.47;54.43
71956;BME280;59829;50.562;6.258;2022-07-10T14:12:35;96651.91;;;19.47;54.79
71956;BME280;59829;50.562;6.258;2022-07-10T14:22:36;96647.44;;;19.74;54.70
71956;BME280;59829;50.562;6.258;2022-07-10T14:32:37;96652.28;;;19.61;55.00
71956;BME280;59829;50.562;6.258;2022-07-10T14:42:37;96642.91;;;19.68;55.34
71956;BME280;59829;50.562;6.258;2022-07-10T14:52:39;96639.84;;;19.80;55.56
71956;BME280;59829;50.562;6.258;2022-07-10T15:02:39;96634.16;;;19.85;54.56
71956;BME280;59829;50.562;6.258;2022-07-10T15:12:40;96614.34;;;19.92;54.54
71956;BME280;59829;50.562;6.258;2022-07-10T15:22:43;96600.88;;;19.97;54.66
71956;BME280;59829;50.562;6.258;2022-07-10T15:32:44;96597.47;;;20.04;55.10
71956;BME280;59829;50.562;6.258;2022-07-10T15:42:46;96595.84;;;20.03;54.33
71956;BME280;59829;50.562;6.258;2022-07-10T15:52:46;96592.56;;;20.09;54.39
71956;BME280;59829;50.562;6.258;2022-07-10T16:02:46;96599.09;;;20.05;54.84
71956;BME280;59829;50.562;6.258;2022-07-10T16:12:47;96589.97;;;20.09;54.97
71956;BME280;59829;50.562;6.258;2022-07-10T16:22:48;96587.69;;;20.23;55.17
71956;BME280;59829;50.562;6.258;2022-07-10T16:32:49;96585.41;;;20.11;54.97
71956;BME280;59829;50.562;6.258;2022-07-10T16:42:49;96582.50;;;19.98;54.91
71956;BME280;59829;50.562;6.258;2022-07-10T16:52:50;96576.50;;;19.98;55.25
71956;BME280;59829;50.562;6.258;2022-07-10T17:02:51;96579.56;;;20.01;55.53
71956;BME280;59829;50.562;6.258;2022-07-10T17:12:51;96568.84;;;20.04;55.35
71956;BME280;59829;50.562;6.258;2022-07-10T17:22:53;96569.50;;;20.06;55.57
71956;BME280;59829;50.562;6.258;2022-07-10T17:32:53;96575.03;;;20.03;55.98
71956;BME280;59829;50.562;6.258;2022-07-10T17:42:54;96575.03;;;20.03;55.96
71956;BME280;59829;50.562;6.258;2022-07-10T17:52:55;96568.53;;;19.99;55.85
71956;BME280;59829;50.562;6.258;2022-07-10T18:02:56;96568.53;;;19.99;56.12
71956;BME280;59829;50.562;6.258;2022-07-10T18:12:57;96573.72;;;19.99;56.42
71956;BME280;59829;50.562;6.258;2022-07-10T18:22:57;96570.63;;;19.96;56.62
71956;BME280;59829;50.562;6.258;2022-07-10T18:32:58;96571.28;;;19.98;56.36
71956;BME280;59829;50.562;6.258;2022-07-10T18:43:17;96568.53;;;19.99;56.07
71956;BME280;59829;50.562;6.258;2022-07-10T18:53:18;96566.88;;;20.06;56.70
71956;BME280;59829;50.562;6.258;2022-07-10T19:03:19;96559.09;;;19.90;56.72
71956;BME280;59829;50.562;6.258;2022-07-10T19:13:20;96556.16;;;20.01;56.43
71956;BME280;59829;50.562;6.258;2022-07-10T19:23:21;96546.09;;;19.98;56.98
71956;BME280;59829;50.562;6.258;2022-07-10T19:33:22;96551.94;;;19.92;56.78
71956;BME280;59829;50.562;6.258;2022-07-10T19:43:23;96558.13;;;19.99;56.76
71956;BME280;59829;50.562;6.258;2022-07-10T19:53:23;96561.34;;;19.93;57.23
71956;BME280;59829;50.562;6.258;2022-07-10T20:03:24;96560.09;;;19.97;56.71
71956;BME280;59829;50.562;6.258;2022-07-10T20:13:25;96564.78;;;19.85;57.51
71956;BME280;59829;50.562;6.258;2022-07-10T20:23:26;96562.00;;;19.87;57.46
71956;BME280;59829;50.562;6.258;2022-07-10T20:33:26;96559.41;;;19.87;57.03
71956;BME280;59829;50.562;6.258;2022-07-10T20:43:27;96562.34;;;19.84;57.73
71956;BME280;59829;50.562;6.258;2022-07-10T20:53:28;96557.31;;;19.82;57.46
71956;BME280;59829;50.562;6.258;2022-07-10T21:03:28;96550.94;;;19.77;57.97
71956;BME280;59829;50.562;6.258;2022-07-10T21:13:29;96558.44;;;19.80;57.97
71956;BME280;59829;50.562;6.258;2022-07-10T21:23:30;96559.56;;;19.77;57.84
71956;BME280;59829;50.562;6.258;2022-07-10T21:33:31;96557.13;;;19.76;58.31
71956;BME280;59829;50.562;6.258;2022-07-10T21:43:31;96556.94;;;19.69;58.21
71956;BME280;59829;50.562;6.258;2022-07-10T21:53:32;96553.53;;;19.69;58.28
71956;BME280;59829;50.562;6.258;2022-07-10T22:03:32;96549.97;;;19.62;58.69
71956;BME280;59829;50.562;6.258;2022-07-10T22:13:33;96558.72;;;19.61;58.72
71956;BME280;59829;50.562;6.258;2022-07-10T22:23:34;96553.84;;;19.57;58.33
71956;BME280;59829;50.562;6.258;2022-07-10T22:33:34;96547.84;;;19.57;58.74
71956;BME280;59829;50.562;6.258;2022-07-10T22:43:35;96543.44;;;19.57;58.91
71956;BME280;59829;50.562;6.258;2022-07-10T22:53:35;96540.34;;;19.54;59.51
71956;BME280;59829;50.562;6.258;2022-07-10T23:03:36;96535.28;;;19.52;58.66
71956;BME280;59829;50.562;6.258;2022-07-10T23:13:37;96531.22;;;19.50;58.45
71956;BME280;59829;50.562;6.258;2022-07-10T23:23:37;96530.75;;;19.46;58.01
71956;BME280;59829;50.562;6.258;2022-07-10T23:33:38;96508.34;;;19.45;57.77
71956;BME280;59829;50.562;6.258;2022-07-10T23:43:38;96501.50;;;19.44;57.73
71956;BME280;59829;50.562;6.258;2022-07-10T23:53:39;96497.25;;;19.43;57.89
